^^
Your Local Weather - Clay, NY Station Historical Data
Daily Summary for January 31, 2018 Units:  Both    English   Metric
« Previous Day
Next Day »
Daily Weekly Monthly Yearly Custom
  High: Low: Average:
Temperature: 32.9 °F /  0.5 °C 7.7 °F /  -13.5 °C 19.9 °F /  -6.7 °C
Dew Point: 20.7 °F /  -6.3 °C 3.9 °F /  -15.6 °C 12.3 °F /  -10.9 °C
Humidity: 89% 51% 74%
Wind Speed: 7.0mph /  11.3km/h - 2.9mph /  4.7km/h
Wind Gust: 12.0mph /  19.3km/h - -
Wind- - South
Pressure: 30.27 in /  1024.9 hPa 29.79 in /  1008.7 hPa -
Precipitation: 0.03 in /  0.76 mm    
Historical Graphs
 
 
Tabular Data for January 31, 2018
Time Temperature Dew Point Pressure Wind Wind Speed Wind Gust Humidity Rainfall Rate (Hourly) solar
00:02 14.5 °F /  -9.7 °C 11.1 °F /  -11.6 °C 30.22in /  1023.2hPa WSW 3.0mph /  4.8km/h 5.0mph /  8km/h 86% 0.00in /  0mm 0 W/m2
00:08 14.5 °F /  -9.7 °C 11.1 °F /  -11.6 °C 30.22in /  1023.2hPa WSW 2.0mph /  3.2km/h 5.0mph /  8km/h 86% 0.00in /  0mm 0 W/m2
00:14 14.5 °F /  -9.7 °C 10.8 °F /  -11.8 °C 30.22in /  1023.2hPa WSW 3.0mph /  4.8km/h 4.0mph /  6.4km/h 85% 0.00in /  0mm 0 W/m2
00:20 14.4 °F /  -9.8 °C 10.7 °F /  -11.8 °C 30.22in /  1023.2hPa WSW 3.0mph /  4.8km/h 3.0mph /  4.8km/h 85% 0.00in /  0mm 0 W/m2
00:26 14.3 °F /  -9.8 °C 10.6 °F /  -11.9 °C 30.22in /  1023.2hPa WSW 3.0mph /  4.8km/h 5.0mph /  8km/h 85% 0.00in /  0mm 0 W/m2
00:32 14.3 °F /  -9.8 °C 10.6 °F /  -11.9 °C 30.22in /  1023.2hPa WSW 3.0mph /  4.8km/h 4.0mph /  6.4km/h 85% 0.00in /  0mm 0 W/m2
00:38 14.2 °F /  -9.9 °C 10.5 °F /  -11.9 °C 30.22in /  1023.2hPa WSW 3.0mph /  4.8km/h 6.0mph /  9.7km/h 85% 0.00in /  0mm 0 W/m2
00:44 14.2 °F /  -9.9 °C 10.5 °F /  -11.9 °C 30.22in /  1023.2hPa WSW 3.0mph /  4.8km/h 3.0mph /  4.8km/h 85% 0.00in /  0mm 0 W/m2
00:50 14.2 °F /  -9.9 °C 10.5 °F /  -11.9 °C 30.22in /  1023.2hPa West 2.0mph /  3.2km/h 3.0mph /  4.8km/h 85% 0.00in /  0mm 0 W/m2
00:56 14.1 °F /  -9.9 °C 10.4 °F /  -12 °C 30.22in /  1023.2hPa WSW 3.0mph /  4.8km/h 3.0mph /  4.8km/h 85% 0.00in /  0mm 0 W/m2
01:02 14.1 °F /  -9.9 °C 10.4 °F /  -12 °C 30.22in /  1023.2hPa SW 3.0mph /  4.8km/h 3.0mph /  4.8km/h 85% 0.00in /  0mm 0 W/m2
01:08 14.1 °F /  -9.9 °C 10.4 °F /  -12 °C 30.22in /  1023.2hPa WSW 3.0mph /  4.8km/h 6.0mph /  9.7km/h 85% 0.00in /  0mm 0 W/m2
01:14 14.1 °F /  -9.9 °C 10.4 °F /  -12 °C 30.22in /  1023.2hPa WSW 2.0mph /  3.2km/h 3.0mph /  4.8km/h 85% 0.00in /  0mm 0 W/m2
01:20 14.1 °F /  -9.9 °C 10.4 °F /  -12 °C 30.23in /  1023.6hPa WNW 1.0mph /  1.6km/h 1.0mph /  1.6km/h 85% 0.00in /  0mm 0 W/m2
01:26 14.1 °F /  -9.9 °C 10.4 °F /  -12 °C 30.23in /  1023.6hPa WNW 1.0mph /  1.6km/h 3.0mph /  4.8km/h 85% 0.00in /  0mm 0 W/m2
01:32 14.3 °F /  -9.8 °C 10.6 °F /  -11.9 °C 30.24in /  1023.9hPa WNW 1.0mph /  1.6km/h 2.0mph /  3.2km/h 85% 0.00in /  0mm 0 W/m2
01:38 14.4 °F /  -9.8 °C 10.7 °F /  -11.8 °C 30.24in /  1023.9hPa WNW 1.0mph /  1.6km/h 2.0mph /  3.2km/h 85% 0.00in /  0mm 0 W/m2
01:44 14.4 °F /  -9.8 °C 10.7 °F /  -11.8 °C 30.24in /  1023.9hPa WNW 1.0mph /  1.6km/h 2.0mph /  3.2km/h 85% 0.00in /  0mm 0 W/m2
01:50 14.4 °F /  -9.8 °C 10.7 °F /  -11.8 °C 30.24in /  1023.9hPa West 1.0mph /  1.6km/h 1.0mph /  1.6km/h 85% 0.00in /  0mm 0 W/m2
01:56 14.4 °F /  -9.8 °C 10.7 °F /  -11.8 °C 30.24in /  1023.9hPa West 1.0mph /  1.6km/h 2.0mph /  3.2km/h 85% 0.00in /  0mm 0 W/m2
02:02 14.3 °F /  -9.8 °C 10.6 °F /  -11.9 °C 30.24in /  1023.9hPa WNW 1.0mph /  1.6km/h 1.0mph /  1.6km/h 85% 0.00in /  0mm 0 W/m2
02:08 14.3 °F /  -9.8 °C 10.6 °F /  -11.9 °C 30.25in /  1024.3hPa WNW 1.0mph /  1.6km/h 3.0mph /  4.8km/h 85% 0.00in /  0mm 0 W/m2
02:14 14.3 °F /  -9.8 °C 10.6 °F /  -11.9 °C 30.25in /  1024.3hPa WNW 2.0mph /  3.2km/h 2.0mph /  3.2km/h 85% 0.00in /  0mm 0 W/m2
02:20 14.4 °F /  -9.8 °C 10.7 °F /  -11.8 °C 30.25in /  1024.3hPa WNW 1.0mph /  1.6km/h 1.0mph /  1.6km/h 85% 0.00in /  0mm 0 W/m2
02:26 14.4 °F /  -9.8 °C 10.7 °F /  -11.8 °C 30.25in /  1024.3hPa Calm   1.0mph /  1.6km/h 85% 0.00in /  0mm 0 W/m2
02:32 14.3 °F /  -9.8 °C 10.6 °F /  -11.9 °C 30.26in /  1024.6hPa West 1.0mph /  1.6km/h 2.0mph /  3.2km/h 85% 0.00in /  0mm 0 W/m2
02:38 14.2 °F /  -9.9 °C 10.5 °F /  -11.9 °C 30.25in /  1024.3hPa WSW 2.0mph /  3.2km/h 3.0mph /  4.8km/h 85% 0.00in /  0mm 0 W/m2
02:44 14.1 °F /  -9.9 °C 10.4 °F /  -12 °C 30.26in /  1024.6hPa WSW 2.0mph /  3.2km/h 5.0mph /  8km/h 85% 0.00in /  0mm 0 W/m2
02:50 14.0 °F /  -10 °C 10.3 °F /  -12.1 °C 30.25in /  1024.3hPa SW 2.0mph /  3.2km/h 4.0mph /  6.4km/h 85% 0.00in /  0mm 0 W/m2
02:56 13.9 °F /  -10.1 °C 10.2 °F /  -12.1 °C 30.25in /  1024.3hPa WSW 2.0mph /  3.2km/h 4.0mph /  6.4km/h 85% 0.00in /  0mm 0 W/m2
03:04 13.9 °F /  -10.1 °C 10.2 °F /  -12.1 °C 30.25in /  1024.3hPa West 2.0mph /  3.2km/h 2.0mph /  3.2km/h 85% 0.00in /  0mm 0 W/m2
03:10 13.8 °F /  -10.1 °C 10.1 °F /  -12.2 °C 30.26in /  1024.6hPa West 1.0mph /  1.6km/h 1.0mph /  1.6km/h 85% 0.00in /  0mm 0 W/m2
03:16 13.8 °F /  -10.1 °C 10.1 °F /  -12.2 °C 30.26in /  1024.6hPa West 1.0mph /  1.6km/h 2.0mph /  3.2km/h 85% 0.00in /  0mm 0 W/m2
03:22 13.7 °F /  -10.2 °C 10.0 °F /  -12.2 °C 30.26in /  1024.6hPa West 1.0mph /  1.6km/h 2.0mph /  3.2km/h 85% 0.00in /  0mm 0 W/m2
03:28 13.7 °F /  -10.2 °C 10.0 °F /  -12.2 °C 30.26in /  1024.6hPa West 1.0mph /  1.6km/h 2.0mph /  3.2km/h 85% 0.00in /  0mm 0 W/m2
03:34 13.7 °F /  -10.2 °C 10.0 °F /  -12.2 °C 30.26in /  1024.6hPa Calm   2.0mph /  3.2km/h 85% 0.00in /  0mm 0 W/m2
03:40 13.6 °F /  -10.2 °C 9.9 °F /  -12.3 °C 30.26in /  1024.6hPa West 1.0mph /  1.6km/h 1.0mph /  1.6km/h 85% 0.00in /  0mm 0 W/m2
03:46 13.6 °F /  -10.2 °C 9.9 °F /  -12.3 °C 30.26in /  1024.6hPa West 1.0mph /  1.6km/h 1.0mph /  1.6km/h 85% 0.00in /  0mm 0 W/m2
03:52 13.5 °F /  -10.3 °C 9.8 °F /  -12.3 °C 30.26in /  1024.6hPa West 1.0mph /  1.6km/h 1.0mph /  1.6km/h 85% 0.00in /  0mm 0 W/m2
03:58 13.5 °F /  -10.3 °C 9.8 °F /  -12.3 °C 30.26in /  1024.6hPa Calm   1.0mph /  1.6km/h 85% 0.00in /  0mm 0 W/m2
04:04 13.5 °F /  -10.3 °C 9.8 °F /  -12.3 °C 30.26in /  1024.6hPa Calm   2.0mph /  3.2km/h 85% 0.00in /  0mm 0 W/m2
04:10 13.4 °F /  -10.3 °C 9.7 °F /  -12.4 °C 30.26in /  1024.6hPa WSW 1.0mph /  1.6km/h 2.0mph /  3.2km/h 85% 0.00in /  0mm 0 W/m2
04:16 13.4 °F /  -10.3 °C 9.7 °F /  -12.4 °C 30.26in /  1024.6hPa WSW 1.0mph /  1.6km/h 4.0mph /  6.4km/h 85% 0.00in /  0mm 0 W/m2
04:22 13.3 °F /  -10.4 °C 9.6 °F /  -12.4 °C 30.26in /  1024.6hPa WSW 1.0mph /  1.6km/h 2.0mph /  3.2km/h 85% 0.00in /  0mm 0 W/m2
04:28 13.3 °F /  -10.4 °C 9.6 °F /  -12.4 °C 30.26in /  1024.6hPa WSW 1.0mph /  1.6km/h 2.0mph /  3.2km/h 85% 0.00in /  0mm 0 W/m2
04:34 13.2 °F /  -10.4 °C 9.5 °F /  -12.5 °C 30.26in /  1024.6hPa WSW 1.0mph /  1.6km/h 1.0mph /  1.6km/h 85% 0.00in /  0mm 0 W/m2
04:40 13.2 °F /  -10.4 °C 9.5 °F /  -12.5 °C 30.26in /  1024.6hPa WSW 1.0mph /  1.6km/h 2.0mph /  3.2km/h 85% 0.00in /  0mm 0 W/m2
04:46 13.2 °F /  -10.4 °C 9.5 °F /  -12.5 °C 30.26in /  1024.6hPa WSW 1.0mph /  1.6km/h 3.0mph /  4.8km/h 85% 0.00in /  0mm 0 W/m2
04:52 13.2 °F /  -10.4 °C 9.5 °F /  -12.5 °C 30.26in /  1024.6hPa WSW 1.0mph /  1.6km/h 1.0mph /  1.6km/h 85% 0.00in /  0mm 0 W/m2
04:58 13.1 °F /  -10.5 °C 9.4 °F /  -12.6 °C 30.26in /  1024.6hPa WSW 1.0mph /  1.6km/h 2.0mph /  3.2km/h 85% 0.00in /  0mm 0 W/m2
05:04 13.0 °F /  -10.6 °C 9.3 °F /  -12.6 °C 30.26in /  1024.6hPa WSW 1.0mph /  1.6km/h 3.0mph /  4.8km/h 85% 0.00in /  0mm 0 W/m2
05:10 12.8 °F /  -10.7 °C 9.1 °F /  -12.7 °C 30.26in /  1024.6hPa WSW 1.0mph /  1.6km/h 1.0mph /  1.6km/h 85% 0.00in /  0mm 0 W/m2
05:16 12.6 °F /  -10.8 °C 8.9 °F /  -12.8 °C 30.26in /  1024.6hPa WSW 1.0mph /  1.6km/h 3.0mph /  4.8km/h 85% 0.00in /  0mm 0 W/m2
05:22 12.3 °F /  -10.9 °C 8.7 °F /  -12.9 °C 30.26in /  1024.6hPa West 2.0mph /  3.2km/h 2.0mph /  3.2km/h 85% 0.00in /  0mm 0 W/m2
05:28 12.1 °F /  -11.1 °C 8.5 °F /  -13.1 °C 30.26in /  1024.6hPa West 1.0mph /  1.6km/h 2.0mph /  3.2km/h 85% 0.00in /  0mm 0 W/m2
05:34 12.0 °F /  -11.1 °C 8.4 °F /  -13.1 °C 30.26in /  1024.6hPa Calm   1.0mph /  1.6km/h 85% 0.00in /  0mm 0 W/m2
05:40 11.7 °F /  -11.3 °C 8.1 °F /  -13.3 °C 30.26in /  1024.6hPa WSW 1.0mph /  1.6km/h 2.0mph /  3.2km/h 85% 0.00in /  0mm 0 W/m2
05:46 11.4 °F /  -11.4 °C 7.8 °F /  -13.4 °C 30.25in /  1024.3hPa WSW 1.0mph /  1.6km/h 2.0mph /  3.2km/h 85% 0.00in /  0mm 0 W/m2
05:52 11.1 °F /  -11.6 °C 7.5 °F /  -13.6 °C 30.26in /  1024.6hPa WSW 1.0mph /  1.6km/h 3.0mph /  4.8km/h 85% 0.00in /  0mm 0 W/m2
05:58 10.8 °F /  -11.8 °C 7.2 °F /  -13.8 °C 30.26in /  1024.6hPa West 2.0mph /  3.2km/h 3.0mph /  4.8km/h 85% 0.00in /  0mm 0 W/m2
06:04 10.6 °F /  -11.9 °C 7.0 °F /  -13.9 °C 30.27in /  1024.9hPa WSW 1.0mph /  1.6km/h 4.0mph /  6.4km/h 85% 0.00in /  0mm 0 W/m2
06:10 10.4 °F /  -12 °C 6.5 °F /  -14.2 °C 30.27in /  1024.9hPa WSW 2.0mph /  3.2km/h 2.0mph /  3.2km/h 84% 0.00in /  0mm 0 W/m2
06:16 10.4 °F /  -12 °C 6.5 °F /  -14.2 °C 30.27in /  1024.9hPa SW 3.0mph /  4.8km/h 3.0mph /  4.8km/h 84% 0.00in /  0mm 0 W/m2
06:22 10.5 °F /  -11.9 °C 6.6 °F /  -14.1 °C 30.27in /  1024.9hPa West 2.0mph /  3.2km/h 3.0mph /  4.8km/h 84% 0.00in /  0mm 0 W/m2
06:28 10.4 °F /  -12 °C 6.5 °F /  -14.2 °C 30.26in /  1024.6hPa WSW 2.0mph /  3.2km/h 3.0mph /  4.8km/h 84% 0.00in /  0mm 0 W/m2
06:34 10.2 °F /  -12.1 °C 6.1 °F /  -14.4 °C 30.26in /  1024.6hPa WSW 1.0mph /  1.6km/h 3.0mph /  4.8km/h 83% 0.00in /  0mm 0 W/m2
06:40 10.0 °F /  -12.2 °C 5.9 °F /  -14.5 °C 30.25in /  1024.3hPa WSW 1.0mph /  1.6km/h 2.0mph /  3.2km/h 83% 0.00in /  0mm 0 W/m2
06:46 9.9 °F /  -12.3 °C 5.8 °F /  -14.6 °C 30.25in /  1024.3hPa Calm   2.0mph /  3.2km/h 83% 0.00in /  0mm 0 W/m2
06:52 9.8 °F /  -12.3 °C 5.7 °F /  -14.6 °C 30.25in /  1024.3hPa Calm     83% 0.00in /  0mm 0 W/m2
06:58 9.7 °F /  -12.4 °C 5.6 °F /  -14.7 °C 30.25in /  1024.3hPa Calm   1.0mph /  1.6km/h 83% 0.00in /  0mm 0 W/m2
07:04 9.7 °F /  -12.4 °C 5.6 °F /  -14.7 °C 30.25in /  1024.3hPa Calm     83% 0.00in /  0mm 0 W/m2
07:10 9.6 °F /  -12.4 °C 5.5 °F /  -14.7 °C 30.24in /  1023.9hPa Calm     83% 0.00in /  0mm 0 W/m2
07:16 9.5 °F /  -12.5 °C 5.4 °F /  -14.8 °C 30.23in /  1023.6hPa Calm     83% 0.00in /  0mm 0 W/m2
07:22 9.4 °F /  -12.6 °C 5.3 °F /  -14.8 °C 30.24in /  1023.9hPa Calm     83% 0.00in /  0mm 5 W/m2
07:28 9.2 °F /  -12.7 °C 5.1 °F /  -14.9 °C 30.24in /  1023.9hPa Calm     83% 0.00in /  0mm 7 W/m2
07:34 9.0 °F /  -12.8 °C 4.9 °F /  -15.1 °C 30.24in /  1023.9hPa Calm     83% 0.00in /  0mm 14 W/m2
07:40 8.9 °F /  -12.8 °C 4.8 °F /  -15.1 °C 30.24in /  1023.9hPa Calm     83% 0.00in /  0mm 14 W/m2
07:46 8.7 °F /  -12.9 °C 4.6 °F /  -15.2 °C 30.24in /  1023.9hPa Calm     83% 0.00in /  0mm 25 W/m2
07:52 8.4 °F /  -13.1 °C 4.3 °F /  -15.4 °C 30.25in /  1024.3hPa Calm     83% 0.00in /  0mm 25 W/m2
07:58 8.3 °F /  -13.2 °C 4.2 °F /  -15.4 °C 30.25in /  1024.3hPa Calm     83% 0.00in /  0mm 28 W/m2
08:04 8.3 °F /  -13.2 °C 4.5 °F /  -15.3 °C 30.25in /  1024.3hPa Calm     84% 0.00in /  0mm 25 W/m2
08:10 8.3 °F /  -13.2 °C 4.5 °F /  -15.3 °C 30.25in /  1024.3hPa Calm     84% 0.00in /  0mm 28 W/m2
08:16 7.9 °F /  -13.4 °C 4.1 °F /  -15.5 °C 30.25in /  1024.3hPa Calm     84% 0.00in /  0mm 49 W/m2
08:22 7.7 °F /  -13.5 °C 3.9 °F /  -15.6 °C 30.24in /  1023.9hPa Calm     84% 0.00in /  0mm 60 W/m2
08:28 8.0 °F /  -13.3 °C 4.2 °F /  -15.4 °C 30.23in /  1023.6hPa Calm   2.0mph /  3.2km/h 84% 0.00in /  0mm 135 W/m2
08:34 8.9 °F /  -12.8 °C 5.3 °F /  -14.8 °C 30.24in /  1023.9hPa Calm   3.0mph /  4.8km/h 85% 0.00in /  0mm 165 W/m2
08:40 10.6 °F /  -11.9 °C 7.0 °F /  -13.9 °C 30.23in /  1023.6hPa SSE 1.0mph /  1.6km/h 1.0mph /  1.6km/h 85% 0.00in /  0mm 197 W/m2
08:46 12.0 °F /  -11.1 °C 7.8 °F /  -13.4 °C 30.23in /  1023.6hPa SE 2.0mph /  3.2km/h 2.0mph /  3.2km/h 83% 0.00in /  0mm 221 W/m2
08:52 12.7 °F /  -10.7 °C 7.7 °F /  -13.5 °C 30.23in /  1023.6hPa SSE 2.0mph /  3.2km/h 3.0mph /  4.8km/h 80% 0.00in /  0mm 239 W/m2
08:58 13.3 °F /  -10.4 °C 8.0 °F /  -13.3 °C 30.23in /  1023.6hPa SE 2.0mph /  3.2km/h 5.0mph /  8km/h 79% 0.00in /  0mm 251 W/m2
09:04 13.6 °F /  -10.2 °C 8.0 °F /  -13.3 °C 30.23in /  1023.6hPa ESE 3.0mph /  4.8km/h 3.0mph /  4.8km/h 78% 0.00in /  0mm 264 W/m2
09:10 14.0 °F /  -10 °C 8.1 °F /  -13.3 °C 30.23in /  1023.6hPa SSE 3.0mph /  4.8km/h 5.0mph /  8km/h 77% 0.00in /  0mm 295 W/m2
09:16 14.7 °F /  -9.6 °C 8.8 °F /  -12.9 °C 30.21in /  1022.9hPa SE 3.0mph /  4.8km/h 5.0mph /  8km/h 77% 0.00in /  0mm 311 W/m2
09:22 15.3 °F /  -9.3 °C 9.1 °F /  -12.7 °C 30.21in /  1022.9hPa SE 3.0mph /  4.8km/h 4.0mph /  6.4km/h 76% 0.00in /  0mm 329 W/m2
09:28 15.8 °F /  -9 °C 9.0 °F /  -12.8 °C 30.21in /  1022.9hPa SSE 3.0mph /  4.8km/h 4.0mph /  6.4km/h 74% 0.00in /  0mm 313 W/m2
09:34 15.8 °F /  -9 °C 8.4 °F /  -13.1 °C 30.20in /  1022.6hPa SSW 4.0mph /  6.4km/h 7.0mph /  11.3km/h 72% 0.00in /  0mm 316 W/m2
09:40 16.4 °F /  -8.7 °C 8.9 °F /  -12.8 °C 30.20in /  1022.6hPa SE 4.0mph /  6.4km/h 4.0mph /  6.4km/h 72% 0.00in /  0mm 348 W/m2
09:46 16.6 °F /  -8.6 °C 8.5 °F /  -13.1 °C 30.20in /  1022.6hPa SSE 3.0mph /  4.8km/h 4.0mph /  6.4km/h 70% 0.00in /  0mm 343 W/m2
09:52 16.6 °F /  -8.6 °C 8.2 °F /  -13.2 °C 30.20in /  1022.6hPa South 4.0mph /  6.4km/h 6.0mph /  9.7km/h 69% 0.00in /  0mm 385 W/m2
09:58 17.4 °F /  -8.1 °C 9.0 °F /  -12.8 °C 30.20in /  1022.6hPa SSE 3.0mph /  4.8km/h 6.0mph /  9.7km/h 69% 0.00in /  0mm 385 W/m2
10:04 16.9 °F /  -8.4 °C 8.5 °F /  -13.1 °C 30.20in /  1022.6hPa SSE 4.0mph /  6.4km/h 4.0mph /  6.4km/h 69% 0.00in /  0mm 271 W/m2
10:10 16.9 °F /  -8.4 °C 8.5 °F /  -13.1 °C 30.19in /  1022.2hPa SSE 4.0mph /  6.4km/h 5.0mph /  8km/h 69% 0.00in /  0mm 290 W/m2
10:16 17.0 °F /  -8.3 °C 8.3 °F /  -13.2 °C 30.20in /  1022.6hPa South 5.0mph /  8km/h 6.0mph /  9.7km/h 68% 0.00in /  0mm 292 W/m2
10:22 17.4 °F /  -8.1 °C 8.3 °F /  -13.2 °C 30.19in /  1022.2hPa SSW 5.0mph /  8km/h 5.0mph /  8km/h 67% 0.00in /  0mm 309 W/m2
10:28 17.8 °F /  -7.9 °C 8.4 °F /  -13.1 °C 30.19in /  1022.2hPa SE 4.0mph /  6.4km/h 7.0mph /  11.3km/h 66% 0.00in /  0mm 297 W/m2
10:34 17.8 °F /  -7.9 °C 8.4 °F /  -13.1 °C 30.18in /  1021.9hPa SSE 4.0mph /  6.4km/h 5.0mph /  8km/h 66% 0.00in /  0mm 285 W/m2
10:40 18.2 °F /  -7.7 °C 8.4 °F /  -13.1 °C 30.18in /  1021.9hPa SSE 3.0mph /  4.8km/h 3.0mph /  4.8km/h 65% 0.00in /  0mm 302 W/m2
10:46 18.7 °F /  -7.4 °C 8.9 °F /  -12.8 °C 30.18in /  1021.9hPa SE 3.0mph /  4.8km/h 6.0mph /  9.7km/h 65% 0.00in /  0mm 311 W/m2
10:52 18.9 °F /  -7.3 °C 8.7 °F /  -12.9 °C 30.17in /  1021.6hPa SE 3.0mph /  4.8km/h 4.0mph /  6.4km/h 64% 0.00in /  0mm 369 W/m2
10:58 19.7 °F /  -6.8 °C 9.1 °F /  -12.7 °C 30.16in /  1021.2hPa SSE 2.0mph /  3.2km/h 4.0mph /  6.4km/h 63% 0.00in /  0mm 413 W/m2
11:04 20.2 °F /  -6.6 °C 9.2 °F /  -12.7 °C 30.15in /  1020.9hPa SE 3.0mph /  4.8km/h 4.0mph /  6.4km/h 62% 0.00in /  0mm 439 W/m2
11:10 20.5 °F /  -6.4 °C 9.2 °F /  -12.7 °C 30.14in /  1020.5hPa SE 3.0mph /  4.8km/h 6.0mph /  9.7km/h 61% 0.00in /  0mm 475 W/m2
11:16 20.5 °F /  -6.4 °C 9.2 °F /  -12.7 °C 30.13in /  1020.2hPa SSE 5.0mph /  8km/h 10.0mph /  16.1km/h 61% 0.00in /  0mm 452 W/m2
11:22 20.6 °F /  -6.3 °C 9.3 °F /  -12.6 °C 30.12in /  1019.9hPa SSE 6.0mph /  9.7km/h 8.0mph /  12.9km/h 61% 0.00in /  0mm 367 W/m2
11:28 20.4 °F /  -6.4 °C 9.1 °F /  -12.7 °C 30.12in /  1019.9hPa SE 6.0mph /  9.7km/h 8.0mph /  12.9km/h 61% 0.00in /  0mm 323 W/m2
11:34 20.6 °F /  -6.3 °C 9.3 °F /  -12.6 °C 30.11in /  1019.5hPa SE 5.0mph /  8km/h 5.0mph /  8km/h 61% 0.00in /  0mm 323 W/m2
11:40 20.9 °F /  -6.2 °C 9.9 °F /  -12.3 °C 30.10in /  1019.2hPa SE 4.0mph /  6.4km/h 4.0mph /  6.4km/h 62% 0.00in /  0mm 332 W/m2
11:46 21.1 °F /  -6.1 °C 9.4 °F /  -12.6 °C 30.09in /  1018.8hPa ESE 4.0mph /  6.4km/h 8.0mph /  12.9km/h 60% 0.00in /  0mm 299 W/m2
11:52 21.2 °F /  -6 °C 9.8 °F /  -12.3 °C 30.09in /  1018.8hPa SE 5.0mph /  8km/h 5.0mph /  8km/h 61% 0.00in /  0mm 295 W/m2
11:58 21.1 °F /  -6.1 °C 9.4 °F /  -12.6 °C 30.09in /  1018.8hPa SSE 6.0mph /  9.7km/h 10.0mph /  16.1km/h 60% 0.00in /  0mm 285 W/m2
12:04 21.1 °F /  -6.1 °C 9.4 °F /  -12.6 °C 30.09in /  1018.8hPa South 7.0mph /  11.3km/h 12.0mph /  19.3km/h 60% 0.00in /  0mm 288 W/m2
12:10 21.5 °F /  -5.8 °C 9.7 °F /  -12.4 °C 30.07in /  1018.2hPa SE 6.0mph /  9.7km/h 6.0mph /  9.7km/h 60% 0.00in /  0mm 320 W/m2
12:16 21.8 °F /  -5.7 °C 9.7 °F /  -12.4 °C 30.07in /  1018.2hPa ESE 6.0mph /  9.7km/h 7.0mph /  11.3km/h 59% 0.00in /  0mm 271 W/m2
12:28 22.0 °F /  -5.6 °C 9.5 °F /  -12.5 °C 30.05in /  1017.5hPa South 5.0mph /  8km/h 9.0mph /  14.5km/h 58% 0.00in /  0mm 204 W/m2
12:36 21.9 °F /  -5.6 °C 9.0 °F /  -12.8 °C 30.04in /  1017.2hPa SE 7.0mph /  11.3km/h 7.0mph /  11.3km/h 57% 0.00in /  0mm 192 W/m2
12:42 22.2 °F /  -5.4 °C 9.7 °F /  -12.4 °C 30.04in /  1017.2hPa SSW 7.0mph /  11.3km/h 7.0mph /  11.3km/h 58% 0.00in /  0mm 185 W/m2
12:48 22.5 °F /  -5.3 °C 9.9 °F /  -12.3 °C 30.04in /  1017.2hPa SSE 5.0mph /  8km/h 7.0mph /  11.3km/h 58% 0.00in /  0mm 197 W/m2
12:54 22.6 °F /  -5.2 °C 10.0 °F /  -12.2 °C 30.03in /  1016.8hPa SE 4.0mph /  6.4km/h 8.0mph /  12.9km/h 58% 0.00in /  0mm 183 W/m2
13:00 22.8 °F /  -5.1 °C 9.8 °F /  -12.3 °C 30.03in /  1016.8hPa South 5.0mph /  8km/h 5.0mph /  8km/h 57% 0.00in /  0mm 183 W/m2
13:06 22.8 °F /  -5.1 °C 9.4 °F /  -12.6 °C 30.03in /  1016.8hPa SSE 4.0mph /  6.4km/h 5.0mph /  8km/h 56% 0.00in /  0mm 186 W/m2
13:12 23.1 °F /  -4.9 °C 9.7 °F /  -12.4 °C 30.02in /  1016.5hPa ESE 5.0mph /  8km/h 5.0mph /  8km/h 56% 0.00in /  0mm 165 W/m2
13:18 23.2 °F /  -4.9 °C 9.4 °F /  -12.6 °C 30.01in /  1016.1hPa SSE 5.0mph /  8km/h 6.0mph /  9.7km/h 55% 0.00in /  0mm 123 W/m2
13:24 23.2 °F /  -4.9 °C 10.2 °F /  -12.1 °C 30.01in /  1016.1hPa SE 4.0mph /  6.4km/h 5.0mph /  8km/h 57% 0.00in /  0mm 116 W/m2
13:30 23.3 °F /  -4.8 °C 9.9 °F /  -12.3 °C 30.00in /  1015.8hPa SE 4.0mph /  6.4km/h 4.0mph /  6.4km/h 56% 0.00in /  0mm 127 W/m2
13:36 23.4 °F /  -4.8 °C 10.0 °F /  -12.2 °C 29.98in /  1015.1hPa SSE 5.0mph /  8km/h 10.0mph /  16.1km/h 56% 0.00in /  0mm 130 W/m2
13:42 23.6 °F /  -4.7 °C 9.8 °F /  -12.3 °C 29.98in /  1015.1hPa SSE 5.0mph /  8km/h 5.0mph /  8km/h 55% 0.00in /  0mm 125 W/m2
13:48 23.6 °F /  -4.7 °C 10.2 °F /  -12.1 °C 29.98in /  1015.1hPa SE 4.0mph /  6.4km/h 6.0mph /  9.7km/h 56% 0.00in /  0mm 109 W/m2
13:54 23.6 °F /  -4.7 °C 10.6 °F /  -11.9 °C 29.98in /  1015.1hPa SE 4.0mph /  6.4km/h 6.0mph /  9.7km/h 57% 0.00in /  0mm 97 W/m2
14:00 23.6 °F /  -4.7 °C 11.4 °F /  -11.4 °C 29.98in /  1015.1hPa SE 4.0mph /  6.4km/h 5.0mph /  8km/h 59% 0.00in /  0mm 83 W/m2
14:06 23.3 °F /  -4.8 °C 11.8 °F /  -11.2 °C 29.97in /  1014.8hPa SE 5.0mph /  8km/h 7.0mph /  11.3km/h 61% 0.00in /  0mm 76 W/m2
14:12 23.2 °F /  -4.9 °C 12.5 °F /  -10.8 °C 29.96in /  1014.4hPa SE 4.0mph /  6.4km/h 5.0mph /  8km/h 63% 0.00in /  0mm 65 W/m2
14:18 23.1 °F /  -4.9 °C 13.8 °F /  -10.1 °C 29.95in /  1014.1hPa SSE 4.0mph /  6.4km/h 7.0mph /  11.3km/h 67% 0.00in /  0mm 60 W/m2
14:24 22.6 °F /  -5.2 °C 14.6 °F /  -9.7 °C 29.95in /  1014.1hPa ESE 4.0mph /  6.4km/h 5.0mph /  8km/h 71% 0.00in /  0mm 47 W/m2
14:30 21.9 °F /  -5.6 °C 15.5 °F /  -9.2 °C 29.94in /  1013.8hPa SE 5.0mph /  8km/h 5.0mph /  8km/h 76% 0.00in /  0mm 39 W/m2
14:36 21.7 °F /  -5.7 °C 16.5 °F /  -8.6 °C 29.93in /  1013.4hPa SSE 4.0mph /  6.4km/h 5.0mph /  8km/h 80% 0.00in /  0mm 32 W/m2
14:42 21.6 °F /  -5.8 °C 17.2 °F /  -8.2 °C 29.92in /  1013.1hPa SSE 3.0mph /  4.8km/h 4.0mph /  6.4km/h 83% 0.00in /  0mm 30 W/m2
14:48 21.5 °F /  -5.8 °C 17.4 °F /  -8.1 °C 29.92in /  1013.1hPa East 4.0mph /  6.4km/h 6.0mph /  9.7km/h 84% 0.00in /  0mm 35 W/m2
14:54 21.4 °F /  -5.9 °C 17.6 °F /  -8 °C 29.92in /  1013.1hPa SSE 5.0mph /  8km/h 6.0mph /  9.7km/h 85% 0.00in /  0mm 35 W/m2
15:00 21.5 °F /  -5.8 °C 18.0 °F /  -7.8 °C 29.91in /  1012.8hPa ESE 4.0mph /  6.4km/h 4.0mph /  6.4km/h 86% 0.00in /  0mm 51 W/m2
15:06 21.5 °F /  -5.8 °C 18.2 °F /  -7.7 °C 29.90in /  1012.4hPa SE 4.0mph /  6.4km/h 8.0mph /  12.9km/h 87% 0.00in /  0mm 58 W/m2
15:12 21.4 °F /  -5.9 °C 18.4 °F /  -7.6 °C 29.90in /  1012.4hPa SE 6.0mph /  9.7km/h 8.0mph /  12.9km/h 88% 0.00in /  0mm 46 W/m2
15:18 21.4 °F /  -5.9 °C 18.4 °F /  -7.6 °C 29.88in /  1011.7hPa East 5.0mph /  8km/h 8.0mph /  12.9km/h 88% 0.00in /  0mm 44 W/m2
15:24 21.5 °F /  -5.8 °C 18.5 °F /  -7.5 °C 29.87in /  1011.4hPa East 5.0mph /  8km/h 8.0mph /  12.9km/h 88% 0.00in /  0mm 69 W/m2
15:30 21.6 °F /  -5.8 °C 18.6 °F /  -7.4 °C 29.87in /  1011.4hPa ESE 5.0mph /  8km/h 8.0mph /  12.9km/h 88% 0.00in /  0mm 54 W/m2
15:36 21.7 °F /  -5.7 °C 18.7 °F /  -7.4 °C 29.87in /  1011.4hPa SE 5.0mph /  8km/h 8.0mph /  12.9km/h 88% 0.00in /  0mm 69 W/m2
15:42 21.8 °F /  -5.7 °C 19.1 °F /  -7.2 °C 29.85in /  1010.7hPa East 4.0mph /  6.4km/h 6.0mph /  9.7km/h 89% 0.00in /  0mm 86 W/m2
15:48 22.0 °F /  -5.6 °C 19.3 °F /  -7.1 °C 29.84in /  1010.4hPa SE 4.0mph /  6.4km/h 6.0mph /  9.7km/h 89% 0.00in /  0mm 74 W/m2
15:54 22.2 °F /  -5.4 °C 19.5 °F /  -6.9 °C 29.84in /  1010.4hPa SE 5.0mph /  8km/h 5.0mph /  8km/h 89% 0.00in /  0mm 76 W/m2
16:00 22.3 °F /  -5.4 °C 19.3 °F /  -7.1 °C 29.84in /  1010.4hPa SE 5.0mph /  8km/h 5.0mph /  8km/h 88% 0.00in /  0mm 74 W/m2
16:06 22.5 °F /  -5.3 °C 19.5 °F /  -6.9 °C 29.83in /  1010hPa SE 4.0mph /  6.4km/h 7.0mph /  11.3km/h 88% 0.00in /  0mm 60 W/m2
16:12 22.7 °F /  -5.2 °C 19.7 °F /  -6.8 °C 29.83in /  1010hPa ESE 3.0mph /  4.8km/h 4.0mph /  6.4km/h 88% 0.00in /  0mm 56 W/m2
16:18 22.9 °F /  -5.1 °C 19.6 °F /  -6.9 °C 29.82in /  1009.7hPa SE 3.0mph /  4.8km/h 6.0mph /  9.7km/h 87% 0.00in /  0mm 51 W/m2
16:24 23.1 °F /  -4.9 °C 19.5 °F /  -6.9 °C 29.81in /  1009.4hPa SE 3.0mph /  4.8km/h 6.0mph /  9.7km/h 86% 0.00in /  0mm 53 W/m2
16:30 23.2 °F /  -4.9 °C 19.6 °F /  -6.9 °C 29.81in /  1009.4hPa ENE 3.0mph /  4.8km/h 3.0mph /  4.8km/h 86% 0.00in /  0mm 37 W/m2
16:36 23.2 °F /  -4.9 °C 19.4 °F /  -7 °C 29.82in /  1009.7hPa SE 3.0mph /  4.8km/h 3.0mph /  4.8km/h 85% 0.00in /  0mm 30 W/m2
16:42 23.3 °F /  -4.8 °C 19.5 °F /  -6.9 °C 29.82in /  1009.7hPa SE 2.0mph /  3.2km/h 2.0mph /  3.2km/h 85% 0.00in /  0mm 25 W/m2
16:48 23.4 °F /  -4.8 °C 19.3 °F /  -7.1 °C 29.82in /  1009.7hPa SE 1.0mph /  1.6km/h 2.0mph /  3.2km/h 84% 0.00in /  0mm 18 W/m2
16:54 23.5 °F /  -4.7 °C 19.4 °F /  -7 °C 29.82in /  1009.7hPa Calm   1.0mph /  1.6km/h 84% 0.00in /  0mm 14 W/m2
17:00 23.5 °F /  -4.7 °C 19.4 °F /  -7 °C 29.82in /  1009.7hPa SE 1.0mph /  1.6km/h 1.0mph /  1.6km/h 84% 0.00in /  0mm 11 W/m2
17:06 23.5 °F /  -4.7 °C 19.4 °F /  -7 °C 29.82in /  1009.7hPa East 1.0mph /  1.6km/h 3.0mph /  4.8km/h 84% 0.00in /  0mm 7 W/m2
17:12 23.5 °F /  -4.7 °C 19.4 °F /  -7 °C 29.82in /  1009.7hPa East 2.0mph /  3.2km/h 3.0mph /  4.8km/h 84% 0.00in /  0mm 5 W/m2
17:18 23.4 °F /  -4.8 °C 19.0 °F /  -7.2 °C 29.82in /  1009.7hPa East 2.0mph /  3.2km/h 3.0mph /  4.8km/h 83% 0.00in /  0mm 0 W/m2
17:24 23.3 °F /  -4.8 °C 19.2 °F /  -7.1 °C 29.82in /  1009.7hPa East 2.0mph /  3.2km/h 3.0mph /  4.8km/h 84% 0.00in /  0mm 0 W/m2
17:30 23.3 °F /  -4.8 °C 19.2 °F /  -7.1 °C 29.82in /  1009.7hPa East 2.0mph /  3.2km/h 2.0mph /  3.2km/h 84% 0.00in /  0mm 0 W/m2
17:36 23.2 °F /  -4.9 °C 19.1 °F /  -7.2 °C 29.82in /  1009.7hPa ENE 2.0mph /  3.2km/h 3.0mph /  4.8km/h 84% 0.00in /  0mm 0 W/m2
17:42 23.1 °F /  -4.9 °C 19.0 °F /  -7.2 °C 29.82in /  1009.7hPa ENE 1.0mph /  1.6km/h 2.0mph /  3.2km/h 84% 0.00in /  0mm 0 W/m2
17:48 23.1 °F /  -4.9 °C 19.0 °F /  -7.2 °C 29.82in /  1009.7hPa ENE 1.0mph /  1.6km/h 2.0mph /  3.2km/h 84% 0.00in /  0mm 0 W/m2
17:54 23.0 °F /  -5 °C 18.9 °F /  -7.3 °C 29.82in /  1009.7hPa ENE 1.0mph /  1.6km/h 1.0mph /  1.6km/h 84% 0.00in /  0mm 0 W/m2
18:00 22.9 °F /  -5.1 °C 18.8 °F /  -7.3 °C 29.82in /  1009.7hPa Calm     84% 0.00in /  0mm 0 W/m2
18:06 22.9 °F /  -5.1 °C 19.1 °F /  -7.2 °C 29.83in /  1010hPa Calm     85% 0.00in /  0mm 0 W/m2
18:12 22.8 °F /  -5.1 °C 19.0 °F /  -7.2 °C 29.82in /  1009.7hPa Calm     85% 0.00in /  0mm 0 W/m2
18:18 22.8 °F /  -5.1 °C 19.0 °F /  -7.2 °C 29.82in /  1009.7hPa Calm     85% 0.00in /  0mm 0 W/m2
18:24 22.9 °F /  -5.1 °C 19.1 °F /  -7.2 °C 29.82in /  1009.7hPa Calm     85% 0.00in /  0mm 0 W/m2
18:30 23.0 °F /  -5 °C 19.4 °F /  -7 °C 29.82in /  1009.7hPa Calm     86% 0.00in /  0mm 0 W/m2
18:36 23.4 °F /  -4.8 °C 19.8 °F /  -6.8 °C 29.82in /  1009.7hPa Calm   1.0mph /  1.6km/h 86% 0.00in /  0mm 0 W/m2
18:42 24.8 °F /  -4 °C 20.7 °F /  -6.3 °C 29.82in /  1009.7hPa SE 1.0mph /  1.6km/h 3.0mph /  4.8km/h 84% 0.00in /  0mm 0 W/m2
18:48 25.8 °F /  -3.4 °C 20.5 °F /  -6.4 °C 29.81in /  1009.4hPa South 2.0mph /  3.2km/h 3.0mph /  4.8km/h 80% 0.00in /  0mm 0 W/m2
18:54 26.6 °F /  -3 °C 19.7 °F /  -6.8 °C 29.81in /  1009.4hPa SSE 2.0mph /  3.2km/h 3.0mph /  4.8km/h 75% 0.00in /  0mm 0 W/m2
19:00 27.3 °F /  -2.6 °C 19.1 °F /  -7.2 °C 29.81in /  1009.4hPa SSE 3.0mph /  4.8km/h 3.0mph /  4.8km/h 71% 0.00in /  0mm 0 W/m2
19:06 27.8 °F /  -2.3 °C 18.6 °F /  -7.4 °C 29.81in /  1009.4hPa SSE 4.0mph /  6.4km/h 6.0mph /  9.7km/h 68% 0.00in /  0mm 0 W/m2
19:12 28.6 °F /  -1.9 °C 18.0 °F /  -7.8 °C 29.81in /  1009.4hPa South 5.0mph /  8km/h 7.0mph /  11.3km/h 64% 0.00in /  0mm 0 W/m2
19:18 28.7 °F /  -1.8 °C 17.7 °F /  -7.9 °C 29.81in /  1009.4hPa South 4.0mph /  6.4km/h 7.0mph /  11.3km/h 63% 0.00in /  0mm 0 W/m2
19:24 28.9 °F /  -1.7 °C 17.1 °F /  -8.3 °C 29.82in /  1009.7hPa South 4.0mph /  6.4km/h 11.0mph /  17.7km/h 61% 0.00in /  0mm 0 W/m2
19:30 29.2 °F /  -1.6 °C 16.6 °F /  -8.6 °C 29.81in /  1009.4hPa South 5.0mph /  8km/h 5.0mph /  8km/h 59% 0.00in /  0mm 0 W/m2
19:36 29.3 °F /  -1.5 °C 16.3 °F /  -8.7 °C 29.82in /  1009.7hPa SSW 5.0mph /  8km/h 7.0mph /  11.3km/h 58% 0.00in /  0mm 0 W/m2
19:42 29.5 °F /  -1.4 °C 16.1 °F /  -8.8 °C 29.82in /  1009.7hPa South 5.0mph /  8km/h 9.0mph /  14.5km/h 57% 0.00in /  0mm 0 W/m2
19:48 29.7 °F /  -1.3 °C 15.5 °F /  -9.2 °C 29.82in /  1009.7hPa WSW 6.0mph /  9.7km/h 9.0mph /  14.5km/h 55% 0.00in /  0mm 0 W/m2
19:54 29.9 °F /  -1.2 °C 15.7 °F /  -9.1 °C 29.82in /  1009.7hPa South 7.0mph /  11.3km/h 7.0mph /  11.3km/h 55% 0.00in /  0mm 0 W/m2
20:00 29.8 °F /  -1.2 °C 15.2 °F /  -9.3 °C 29.82in /  1009.7hPa SW 7.0mph /  11.3km/h 9.0mph /  14.5km/h 54% 0.00in /  0mm 0 W/m2
20:06 29.9 °F /  -1.2 °C 14.8 °F /  -9.6 °C 29.81in /  1009.4hPa SSW 7.0mph /  11.3km/h 12.0mph /  19.3km/h 53% 0.00in /  0mm 0 W/m2
20:12 29.8 °F /  -1.2 °C 14.7 °F /  -9.6 °C 29.81in /  1009.4hPa SSW 7.0mph /  11.3km/h 9.0mph /  14.5km/h 53% 0.00in /  0mm 0 W/m2
20:18 29.8 °F /  -1.2 °C 15.2 °F /  -9.3 °C 29.81in /  1009.4hPa SSE 6.0mph /  9.7km/h 9.0mph /  14.5km/h 54% 0.00in /  0mm 0 W/m2
20:24 29.9 °F /  -1.2 °C 14.8 °F /  -9.6 °C 29.82in /  1009.7hPa SSW 6.0mph /  9.7km/h 6.0mph /  9.7km/h 53% 0.00in /  0mm 0 W/m2
20:30 30.0 °F /  -1.1 °C 14.9 °F /  -9.5 °C 29.81in /  1009.4hPa SSE 6.0mph /  9.7km/h 11.0mph /  17.7km/h 53% 0.00in /  0mm 0 W/m2
20:36 30.1 °F /  -1.1 °C 15.0 °F /  -9.4 °C 29.81in /  1009.4hPa SW 7.0mph /  11.3km/h 11.0mph /  17.7km/h 53% 0.00in /  0mm 0 W/m2
20:42 30.1 °F /  -1.1 °C 15.0 °F /  -9.4 °C 29.81in /  1009.4hPa SSE 6.0mph /  9.7km/h 10.0mph /  16.1km/h 53% 0.00in /  0mm 0 W/m2
20:48 30.3 °F /  -0.9 °C 15.2 °F /  -9.3 °C 29.81in /  1009.4hPa South 6.0mph /  9.7km/h 10.0mph /  16.1km/h 53% 0.00in /  0mm 0 W/m2
20:54 30.5 °F /  -0.8 °C 15.4 °F /  -9.2 °C 29.81in /  1009.4hPa SSW 6.0mph /  9.7km/h 7.0mph /  11.3km/h 53% 0.00in /  0mm 0 W/m2
21:00 30.6 °F /  -0.8 °C 15.0 °F /  -9.4 °C 29.81in /  1009.4hPa SSE 5.0mph /  8km/h 7.0mph /  11.3km/h 52% 0.00in /  0mm 0 W/m2
21:06 30.8 °F /  -0.7 °C 15.7 °F /  -9.1 °C 29.81in /  1009.4hPa South 6.0mph /  9.7km/h 7.0mph /  11.3km/h 53% 0.00in /  0mm 0 W/m2
21:12 30.9 °F /  -0.6 °C 15.3 °F /  -9.3 °C 29.81in /  1009.4hPa South 6.0mph /  9.7km/h 6.0mph /  9.7km/h 52% 0.00in /  0mm 0 W/m2
21:18 30.9 °F /  -0.6 °C 14.9 °F /  -9.5 °C 29.81in /  1009.4hPa SSE 5.0mph /  8km/h 9.0mph /  14.5km/h 51% 0.00in /  0mm 0 W/m2
21:24 31.0 °F /  -0.6 °C 15.4 °F /  -9.2 °C 29.81in /  1009.4hPa South 5.0mph /  8km/h 10.0mph /  16.1km/h 52% 0.00in /  0mm 0 W/m2
21:30 31.0 °F /  -0.6 °C 15.4 °F /  -9.2 °C 29.81in /  1009.4hPa South 5.0mph /  8km/h 5.0mph /  8km/h 52% 0.00in /  0mm 0 W/m2
21:36 31.2 °F /  -0.4 °C 15.2 °F /  -9.3 °C 29.81in /  1009.4hPa South 6.0mph /  9.7km/h 9.0mph /  14.5km/h 51% 0.00in /  0mm 0 W/m2
21:42 31.3 °F /  -0.4 °C 15.2 °F /  -9.3 °C 29.81in /  1009.4hPa South 5.0mph /  8km/h 5.0mph /  8km/h 51% 0.00in /  0mm 0 W/m2
21:48 31.4 °F /  -0.3 °C 15.8 °F /  -9 °C 29.81in /  1009.4hPa SSW 4.0mph /  6.4km/h 5.0mph /  8km/h 52% 0.00in /  0mm 0 W/m2
21:54 31.4 °F /  -0.3 °C 15.8 °F /  -9 °C 29.81in /  1009.4hPa South 3.0mph /  4.8km/h 4.0mph /  6.4km/h 52% 0.00in /  0mm 0 W/m2
22:00 31.4 °F /  -0.3 °C 15.8 °F /  -9 °C 29.80in /  1009hPa SSE 3.0mph /  4.8km/h 3.0mph /  4.8km/h 52% 0.00in /  0mm 0 W/m2
22:06 31.5 °F /  -0.3 °C 16.3 °F /  -8.7 °C 29.80in /  1009hPa South 2.0mph /  3.2km/h 5.0mph /  8km/h 53% 0.00in /  0mm 0 W/m2
22:12 31.5 °F /  -0.3 °C 16.3 °F /  -8.7 °C 29.80in /  1009hPa SSW 2.0mph /  3.2km/h 2.0mph /  3.2km/h 53% 0.00in /  0mm 0 W/m2
22:18 31.4 °F /  -0.3 °C 16.2 °F /  -8.8 °C 29.80in /  1009hPa SSW 2.0mph /  3.2km/h 2.0mph /  3.2km/h 53% 0.00in /  0mm 0 W/m2
22:24 31.2 °F /  -0.4 °C 16.5 °F /  -8.6 °C 29.80in /  1009hPa SSW 2.0mph /  3.2km/h 2.0mph /  3.2km/h 54% 0.00in /  0mm 0 W/m2
22:30 31.2 °F /  -0.4 °C 16.5 °F /  -8.6 °C 29.81in /  1009.4hPa SSW 2.0mph /  3.2km/h 4.0mph /  6.4km/h 54% 0.00in /  0mm 0 W/m2
22:36 31.4 °F /  -0.3 °C 16.7 °F /  -8.5 °C 29.80in /  1009hPa SSE 2.0mph /  3.2km/h 5.0mph /  8km/h 54% 0.00in /  0mm 0 W/m2
22:42 31.6 °F /  -0.2 °C 16.8 °F /  -8.4 °C 29.80in /  1009hPa SW 3.0mph /  4.8km/h 3.0mph /  4.8km/h 54% 0.00in /  0mm 0 W/m2
22:48 31.8 °F /  -0.1 °C 17.0 °F /  -8.3 °C 29.80in /  1009hPa SSE 3.0mph /  4.8km/h 5.0mph /  8km/h 54% 0.00in /  0mm 0 W/m2
22:56 32.1 °F /  0.1 °C 16.9 °F /  -8.4 °C 29.80in /  1009hPa South 3.0mph /  4.8km/h 5.0mph /  8km/h 53% 0.00in /  0mm 0 W/m2
23:02 32.3 °F /  0.2 °C 17.1 °F /  -8.3 °C 29.80in /  1009hPa South 4.0mph /  6.4km/h 4.0mph /  6.4km/h 53% 0.00in /  0mm 0 W/m2
23:08 32.3 °F /  0.2 °C 16.6 °F /  -8.6 °C 29.80in /  1009hPa SSE 4.0mph /  6.4km/h 4.0mph /  6.4km/h 52% 0.00in /  0mm 0 W/m2
23:14 32.5 °F /  0.3 °C 16.4 °F /  -8.7 °C 29.80in /  1009hPa South 5.0mph /  8km/h 5.0mph /  8km/h 51% 0.00in /  0mm 0 W/m2
23:20 32.5 °F /  0.3 °C 16.8 °F /  -8.4 °C 29.80in /  1009hPa SSW 4.0mph /  6.4km/h 4.0mph /  6.4km/h 52% 0.00in /  0mm 0 W/m2
23:26 32.7 °F /  0.4 °C 16.5 °F /  -8.6 °C 29.80in /  1009hPa South 5.0mph /  8km/h 6.0mph /  9.7km/h 51% 0.00in /  0mm 0 W/m2
23:32 32.7 °F /  0.4 °C 17.0 °F /  -8.3 °C 29.80in /  1009hPa SSW 5.0mph /  8km/h 5.0mph /  8km/h 52% 0.00in /  0mm 0 W/m2
23:38 32.8 °F /  0.4 °C 16.6 °F /  -8.6 °C 29.80in /  1009hPa SSE 5.0mph /  8km/h 5.0mph /  8km/h 51% 0.00in /  0mm 0 W/m2
23:44 32.8 °F /  0.4 °C 16.6 °F /  -8.6 °C 29.79in /  1008.7hPa SSW 5.0mph /  8km/h 7.0mph /  11.3km/h 51% 0.00in /  0mm 0 W/m2
23:50 32.9 °F /  0.5 °C 16.7 °F /  -8.5 °C 29.79in /  1008.7hPa South 5.0mph /  8km/h 5.0mph /  8km/h 51% 0.00in /  0mm 0 W/m2
23:56 32.8 °F /  0.4 °C 17.1 °F /  -8.3 °C 29.79in /  1008.7hPa South 5.0mph /  8km/h 5.0mph /  8km/h 52% 0.00in /  0mm 0 W/m2
Country Meadow, Clay, NY, USA
Compliments of Weather Underground - 2 mb